sensor_id;sensor_type;location;lat;lon;timestamp;temperature;humidity
12043;DHT22;6082;49.306;12.862;2023-09-12T00:01:04;18.80;99.90
12043;DHT22;6082;49.306;12.862;2023-09-12T00:03:30;18.80;99.90
12043;DHT22;6082;49.306;12.862;2023-09-12T00:05:58;18.80;99.90
12043;DHT22;6082;49.306;12.862;2023-09-12T00:08:24;18.70;99.90
12043;DHT22;6082;49.306;12.862;2023-09-12T00:11:22;18.70;99.90
12043;DHT22;6082;49.306;12.862;2023-09-12T00:13:51;18.70;99.90
12043;DHT22;6082;49.306;12.862;2023-09-12T00:16:17;18.70;99.90
12043;DHT22;6082;49.306;12.862;2023-09-12T00:18:43;18.60;99.90
12043;DHT22;6082;49.306;12.862;2023-09-12T00:21:08;18.60;99.90
12043;DHT22;6082;49.306;12.862;2023-09-12T00:23:34;18.60;99.90
12043;DHT22;6082;49.306;12.862;2023-09-12T00:26:00;18.60;99.90
12043;DHT22;6082;49.306;12.862;2023-09-12T00:28:26;18.50;99.90
12043;DHT22;6082;49.306;12.862;2023-09-12T00:30:52;18.50;99.90
12043;DHT22;6082;49.306;12.862;2023-09-12T00:33:18;18.50;99.90
12043;DHT22;6082;49.306;12.862;2023-09-12T00:35:44;18.40;99.90
12043;DHT22;6082;49.306;12.862;2023-09-12T00:38:10;18.40;99.90
12043;DHT22;6082;49.306;12.862;2023-09-12T00:40:36;18.40;99.90
12043;DHT22;6082;49.306;12.862;2023-09-12T00:43:03;18.40;99.90
12043;DHT22;6082;49.306;12.862;2023-09-12T00:45:29;18.30;99.90
12043;DHT22;6082;49.306;12.862;2023-09-12T00:47:55;18.30;99.90
12043;DHT22;6082;49.306;12.862;2023-09-12T00:50:25;18.20;99.90
12043;DHT22;6082;49.306;12.862;2023-09-12T00:52:52;18.20;99.90
12043;DHT22;6082;49.306;12.862;2023-09-12T00:55:19;18.20;99.90
12043;DHT22;6082;49.306;12.862;2023-09-12T00:57:45;18.10;99.90
12043;DHT22;6082;49.306;12.862;2023-09-12T01:00:12;18.10;99.90
12043;DHT22;6082;49.306;12.862;2023-09-12T01:02:42;18.10;99.90
12043;DHT22;6082;49.306;12.862;2023-09-12T01:05:09;18.10;99.90
12043;DHT22;6082;49.306;12.862;2023-09-12T01:07:36;18.10;99.90
12043;DHT22;6082;49.306;12.862;2023-09-12T01:10:03;18.00;99.90
12043;DHT22;6082;49.306;12.862;2023-09-12T01:12:29;18.00;99.90
12043;DHT22;6082;49.306;12.862;2023-09-12T01:14:55;18.00;99.90
12043;DHT22;6082;49.306;12.862;2023-09-12T01:17:22;18.00;99.90
12043;DHT22;6082;49.306;12.862;2023-09-12T01:19:48;18.00;99.90
12043;DHT22;6082;49.306;12.862;2023-09-12T01:22:28;18.00;99.90
12043;DHT22;6082;49.306;12.862;2023-09-12T01:28:02;17.90;99.90
12043;DHT22;6082;49.306;12.862;2023-09-12T01:30:32;17.90;99.90
12043;DHT22;6082;49.306;12.862;2023-09-12T01:33:00;17.90;99.90
12043;DHT22;6082;49.306;12.862;2023-09-12T01:35:26;17.80;99.90
12043;DHT22;6082;49.306;12.862;2023-09-12T01:37:52;17.80;99.90
12043;DHT22;6082;49.306;12.862;2023-09-12T01:40:24;17.80;99.90
12043;DHT22;6082;49.306;12.862;2023-09-12T01:42:53;17.80;99.90
12043;DHT22;6082;49.306;12.862;2023-09-12T01:45:20;17.80;99.90
12043;DHT22;6082;49.306;12.862;2023-09-12T01:47:47;17.70;99.90
12043;DHT22;6082;49.306;12.862;2023-09-12T01:50:15;17.70;99.90
12043;DHT22;6082;49.306;12.862;2023-09-12T01:52:41;17.70;99.90
12043;DHT22;6082;49.306;12.862;2023-09-12T01:55:08;17.70;99.90
12043;DHT22;6082;49.306;12.862;2023-09-12T01:57:37;17.60;99.90
12043;DHT22;6082;49.306;12.862;2023-09-12T02:00:03;17.60;99.90
12043;DHT22;6082;49.306;12.862;2023-09-12T02:02:29;17.60;99.90
12043;DHT22;6082;49.306;12.862;2023-09-12T02:05:09;17.50;99.90
12043;DHT22;6082;49.306;12.862;2023-09-12T02:07:38;17.50;99.90
12043;DHT22;6082;49.306;12.862;2023-09-12T02:10:05;17.50;99.90
12043;DHT22;6082;49.306;12.862;2023-09-12T02:12:34;17.50;99.90
12043;DHT22;6082;49.306;12.862;2023-09-12T02:14:59;17.40;99.90
12043;DHT22;6082;49.306;12.862;2023-09-12T02:17:25;17.40;99.90
12043;DHT22;6082;49.306;12.862;2023-09-12T02:19:51;17.40;99.90
12043;DHT22;6082;49.306;12.862;2023-09-12T02:22:16;17.40;99.90
12043;DHT22;6082;49.306;12.862;2023-09-12T02:24:42;17.40;99.90
12043;DHT22;6082;49.306;12.862;2023-09-12T02:27:08;17.30;99.90
12043;DHT22;6082;49.306;12.862;2023-09-12T02:29:34;17.30;99.90
12043;DHT22;6082;49.306;12.862;2023-09-12T02:32:00;17.30;99.90
12043;DHT22;6082;49.306;12.862;2023-09-12T02:34:26;17.30;99.90
12043;DHT22;6082;49.306;12.862;2023-09-12T02:36:52;17.30;99.90
12043;DHT22;6082;49.306;12.862;2023-09-12T02:39:17;17.20;99.90
12043;DHT22;6082;49.306;12.862;2023-09-12T02:41:43;17.20;99.90
12043;DHT22;6082;49.306;12.862;2023-09-12T02:44:09;17.20;99.90
12043;DHT22;6082;49.306;12.862;2023-09-12T02:46:36;17.10;99.90
12043;DHT22;6082;49.306;12.862;2023-09-12T02:49:01;17.10;99.90
12043;DHT22;6082;49.306;12.862;2023-09-12T02:51:27;17.10;99.90
12043;DHT22;6082;49.306;12.862;2023-09-12T02:53:53;17.00;99.90
12043;DHT22;6082;49.306;12.862;2023-09-12T02:56:19;17.00;99.90
12043;DHT22;6082;49.306;12.862;2023-09-12T02:58:48;17.00;99.90
12043;DHT22;6082;49.306;12.862;2023-09-12T03:01:18;17.00;99.90
12043;DHT22;6082;49.306;12.862;2023-09-12T03:03:47;17.00;99.90
12043;DHT22;6082;49.306;12.862;2023-09-12T03:06:13;16.90;99.90
12043;DHT22;6082;49.306;12.862;2023-09-12T03:08:43;16.90;99.90
12043;DHT22;6082;49.306;12.862;2023-09-12T03:11:09;16.90;99.90
12043;DHT22;6082;49.306;12.862;2023-09-12T03:13:37;16.80;99.90
12043;DHT22;6082;49.306;12.862;2023-09-12T03:16:03;16.80;99.90
12043;DHT22;6082;49.306;12.862;2023-09-12T03:18:29;16.80;99.90
12043;DHT22;6082;49.306;12.862;2023-09-12T03:20:54;16.80;99.90
12043;DHT22;6082;49.306;12.862;2023-09-12T03:23:20;16.70;99.90
12043;DHT22;6082;49.306;12.862;2023-09-12T03:25:46;16.70;99.90
12043;DHT22;6082;49.306;12.862;2023-09-12T03:28:12;16.70;99.90
12043;DHT22;6082;49.306;12.862;2023-09-12T03:30:38;16.70;99.90
12043;DHT22;6082;49.306;12.862;2023-09-12T03:33:05;16.60;99.90
12043;DHT22;6082;49.306;12.862;2023-09-12T03:35:34;16.60;99.90
12043;DHT22;6082;49.306;12.862;2023-09-12T03:38:00;16.60;99.90
12043;DHT22;6082;49.306;12.862;2023-09-12T03:40:28;16.60;99.90
12043;DHT22;6082;49.306;12.862;2023-09-12T03:42:56;16.60;99.90
12043;DHT22;6082;49.306;12.862;2023-09-12T03:45:22;16.60;99.90
12043;DHT22;6082;49.306;12.862;2023-09-12T03:47:47;16.50;99.90
12043;DHT22;6082;49.306;12.862;2023-09-12T03:50:13;16.50;99.90
12043;DHT22;6082;49.306;12.862;2023-09-12T03:52:39;16.50;99.90
12043;DHT22;6082;49.306;12.862;2023-09-12T03:55:05;16.50;99.90
12043;DHT22;6082;49.306;12.862;2023-09-12T03:57:31;16.50;99.90
12043;DHT22;6082;49.306;12.862;2023-09-12T03:59:57;16.40;99.90
12043;DHT22;6082;49.306;12.862;2023-09-12T04:02:23;16.40;99.90
12043;DHT22;6082;49.306;12.862;2023-09-12T04:04:49;16.40;99.90
12043;DHT22;6082;49.306;12.862;2023-09-12T04:07:14;16.40;99.90
12043;DHT22;6082;49.306;12.862;2023-09-12T04:09:40;16.40;99.90
12043;DHT22;6082;49.306;12.862;2023-09-12T04:12:06;16.30;99.90
12043;DHT22;6082;49.306;12.862;2023-09-12T04:14:32;16.30;99.90
12043;DHT22;6082;49.306;12.862;2023-09-12T04:16:58;16.30;99.90
12043;DHT22;6082;49.306;12.862;2023-09-12T04:19:25;16.30;99.90
12043;DHT22;6082;49.306;12.862;2023-09-12T04:21:50;16.30;99.90
12043;DHT22;6082;49.306;12.862;2023-09-12T04:24:16;16.20;99.90
12043;DHT22;6082;49.306;12.862;2023-09-12T04:26:43;16.20;99.90
12043;DHT22;6082;49.306;12.862;2023-09-12T04:29:10;16.20;99.90
12043;DHT22;6082;49.306;12.862;2023-09-12T04:31:36;16.10;99.90
12043;DHT22;6082;49.306;12.862;2023-09-12T04:34:02;16.10;99.90
12043;DHT22;6082;49.306;12.862;2023-09-12T04:36:28;16.10;99.90
12043;DHT22;6082;49.306;12.862;2023-09-12T04:38:53;16.10;99.90
12043;DHT22;6082;49.306;12.862;2023-09-12T04:41:19;16.10;99.90
12043;DHT22;6082;49.306;12.862;2023-09-12T04:43:45;16.10;99.90
12043;DHT22;6082;49.306;12.862;2023-09-12T04:46:11;16.10;99.90
12043;DHT22;6082;49.306;12.862;2023-09-12T04:48:38;16.10;99.90
12043;DHT22;6082;49.306;12.862;2023-09-12T04:51:04;16.10;99.90
12043;DHT22;6082;49.306;12.862;2023-09-12T04:53:30;16.00;99.90
12043;DHT22;6082;49.306;12.862;2023-09-12T04:56:02;16.00;99.90
12043;DHT22;6082;49.306;12.862;2023-09-12T04:58:28;16.00;99.90
12043;DHT22;6082;49.306;12.862;2023-09-12T05:00:55;16.00;99.90
12043;DHT22;6082;49.306;12.862;2023-09-12T05:03:21;16.00;99.90
12043;DHT22;6082;49.306;12.862;2023-09-12T05:05:48;16.00;99.90
12043;DHT22;6082;49.306;12.862;2023-09-12T05:08:14;16.00;99.90
12043;DHT22;6082;49.306;12.862;2023-09-12T05:10:39;16.00;99.90
12043;DHT22;6082;49.306;12.862;2023-09-12T05:13:05;15.90;99.90
12043;DHT22;6082;49.306;12.862;2023-09-12T05:15:31;16.00;99.90
12043;DHT22;6082;49.306;12.862;2023-09-12T05:17:57;16.00;99.90
12043;DHT22;6082;49.306;12.862;2023-09-12T05:20:22;16.00;99.90
12043;DHT22;6082;49.306;12.862;2023-09-12T05:22:48;15.90;99.90
12043;DHT22;6082;49.306;12.862;2023-09-12T05:25:14;15.90;99.90
12043;DHT22;6082;49.306;12.862;2023-09-12T05:27:40;16.00;99.90
12043;DHT22;6082;49.306;12.862;2023-09-12T05:30:06;16.00;99.90
12043;DHT22;6082;49.306;12.862;2023-09-12T05:32:32;15.90;99.90
12043;DHT22;6082;49.306;12.862;2023-09-12T05:34:57;16.00;99.90
12043;DHT22;6082;49.306;12.862;2023-09-12T05:37:23;16.00;99.90
12043;DHT22;6082;49.306;12.862;2023-09-12T05:39:49;16.00;99.90
12043;DHT22;6082;49.306;12.862;2023-09-12T05:42:14;16.00;99.90
12043;DHT22;6082;49.306;12.862;2023-09-12T05:44:47;16.00;99.90
12043;DHT22;6082;49.306;12.862;2023-09-12T05:47:12;16.00;99.90
12043;DHT22;6082;49.306;12.862;2023-09-12T05:49:38;16.10;99.90
12043;DHT22;6082;49.306;12.862;2023-09-12T05:52:04;16.00;99.90
12043;DHT22;6082;49.306;12.862;2023-09-12T05:54:30;16.10;99.90
12043;DHT22;6082;49.306;12.862;2023-09-12T05:56:55;16.10;99.90
12043;DHT22;6082;49.306;12.862;2023-09-12T05:59:21;16.20;99.90
12043;DHT22;6082;49.306;12.862;2023-09-12T06:01:47;16.20;99.90
12043;DHT22;6082;49.306;12.862;2023-09-12T06:04:14;16.30;99.90
12043;DHT22;6082;49.306;12.862;2023-09-12T06:06:40;16.30;99.90
12043;DHT22;6082;49.306;12.862;2023-09-12T06:09:06;16.40;99.90
12043;DHT22;6082;49.306;12.862;2023-09-12T06:11:32;16.40;99.90
12043;DHT22;6082;49.306;12.862;2023-09-12T06:13:57;16.50;99.90
12043;DHT22;6082;49.306;12.862;2023-09-12T06:16:23;16.50;99.90
12043;DHT22;6082;49.306;12.862;2023-09-12T06:18:49;16.50;99.90
12043;DHT22;6082;49.306;12.862;2023-09-12T06:21:15;16.60;99.90
12043;DHT22;6082;49.306;12.862;2023-09-12T06:23:41;16.60;99.90
12043;DHT22;6082;49.306;12.862;2023-09-12T06:26:06;16.70;99.90
12043;DHT22;6082;49.306;12.862;2023-09-12T06:28:32;16.80;99.90
12043;DHT22;6082;49.306;12.862;2023-09-12T06:30:58;16.80;99.90
12043;DHT22;6082;49.306;12.862;2023-09-12T06:33:25;16.90;99.90
12043;DHT22;6082;49.306;12.862;2023-09-12T06:35:52;16.90;99.90
12043;DHT22;6082;49.306;12.862;2023-09-12T06:38:19;17.10;99.90
12043;DHT22;6082;49.306;12.862;2023-09-12T06:40:45;17.20;99.90
12043;DHT22;6082;49.306;12.862;2023-09-12T06:43:13;17.30;99.90
12043;DHT22;6082;49.306;12.862;2023-09-12T06:45:40;17.40;99.90
12043;DHT22;6082;49.306;12.862;2023-09-12T06:48:06;17.50;99.90
12043;DHT22;6082;49.306;12.862;2023-09-12T06:50:32;17.60;99.90
12043;DHT22;6082;49.306;12.862;2023-09-12T06:52:58;17.60;99.90
12043;DHT22;6082;49.306;12.862;2023-09-12T06:55:24;17.70;99.90
12043;DHT22;6082;49.306;12.862;2023-09-12T06:57:50;17.70;99.90
12043;DHT22;6082;49.306;12.862;2023-09-12T07:00:16;17.90;99.90
12043;DHT22;6082;49.306;12.862;2023-09-12T07:02:42;17.90;99.90
12043;DHT22;6082;49.306;12.862;2023-09-12T07:05:08;18.00;99.90
12043;DHT22;6082;49.306;12.862;2023-09-12T07:07:34;18.10;99.90
12043;DHT22;6082;49.306;12.862;2023-09-12T07:09:59;18.20;99.90
12043;DHT22;6082;49.306;12.862;2023-09-12T07:12:28;18.20;99.90
12043;DHT22;6082;49.306;12.862;2023-09-12T07:14:54;18.30;99.90
12043;DHT22;6082;49.306;12.862;2023-09-12T07:17:21;18.40;99.90
12043;DHT22;6082;49.306;12.862;2023-09-12T07:19:47;18.60;99.90
12043;DHT22;6082;49.306;12.862;2023-09-12T07:22:13;18.60;99.90
12043;DHT22;6082;49.306;12.862;2023-09-12T07:24:39;18.70;99.90
12043;DHT22;6082;49.306;12.862;2023-09-12T07:27:04;18.80;99.90
12043;DHT22;6082;49.306;12.862;2023-09-12T07:29:31;18.90;99.90
12043;DHT22;6082;49.306;12.862;2023-09-12T07:31:56;19.00;99.90
12043;DHT22;6082;49.306;12.862;2023-09-12T07:34:24;19.10;99.90
12043;DHT22;6082;49.306;12.862;2023-09-12T07:36:50;19.20;99.90
12043;DHT22;6082;49.306;12.862;2023-09-12T07:39:19;19.30;99.90
12043;DHT22;6082;49.306;12.862;2023-09-12T07:41:45;19.30;99.90
12043;DHT22;6082;49.306;12.862;2023-09-12T07:44:11;19.50;99.90
12043;DHT22;6082;49.306;12.862;2023-09-12T07:46:40;19.50;99.90
12043;DHT22;6082;49.306;12.862;2023-09-12T07:49:05;19.60;99.90
12043;DHT22;6082;49.306;12.862;2023-09-12T07:51:33;19.60;99.90
12043;DHT22;6082;49.306;12.862;2023-09-12T07:53:59;19.80;99.90
12043;DHT22;6082;49.306;12.862;2023-09-12T07:56:24;20.00;99.90
12043;DHT22;6082;49.306;12.862;2023-09-12T07:58:50;20.00;99.90
12043;DHT22;6082;49.306;12.862;2023-09-12T08:01:16;20.10;99.90
12043;DHT22;6082;49.306;12.862;2023-09-12T08:03:42;20.20;99.90
12043;DHT22;6082;49.306;12.862;2023-09-12T08:06:08;20.30;99.90
12043;DHT22;6082;49.306;12.862;2023-09-12T08:08:34;20.40;99.90
12043;DHT22;6082;49.306;12.862;2023-09-12T08:11:00;20.50;99.90
12043;DHT22;6082;49.306;12.862;2023-09-12T08:13:27;20.70;99.90
12043;DHT22;6082;49.306;12.862;2023-09-12T08:15:53;20.80;99.90
12043;DHT22;6082;49.306;12.862;2023-09-12T08:18:19;20.90;99.90
12043;DHT22;6082;49.306;12.862;2023-09-12T08:20:45;21.00;99.90
12043;DHT22;6082;49.306;12.862;2023-09-12T08:23:11;21.10;99.90
12043;DHT22;6082;49.306;12.862;2023-09-12T08:25:37;21.20;99.90
12043;DHT22;6082;49.306;12.862;2023-09-12T08:28:02;21.30;99.90
12043;DHT22;6082;49.306;12.862;2023-09-12T08:30:28;21.50;99.90
12043;DHT22;6082;49.306;12.862;2023-09-12T08:32:58;21.60;99.90
12043;DHT22;6082;49.306;12.862;2023-09-12T08:35:24;21.60;99.90
12043;DHT22;6082;49.306;12.862;2023-09-12T08:37:51;21.70;99.90
12043;DHT22;6082;49.306;12.862;2023-09-12T08:40:17;21.90;99.90
12043;DHT22;6082;49.306;12.862;2023-09-12T08:42:44;22.00;99.90
12043;DHT22;6082;49.306;12.862;2023-09-12T08:45:14;22.10;99.90
12043;DHT22;6082;49.306;12.862;2023-09-12T08:47:51;22.20;99.90
12043;DHT22;6082;49.306;12.862;2023-09-12T08:50:17;22.40;99.90
12043;DHT22;6082;49.306;12.862;2023-09-12T08:52:45;22.50;99.90
12043;DHT22;6082;49.306;12.862;2023-09-12T08:55:11;22.60;99.90
12043;DHT22;6082;49.306;12.862;2023-09-12T08:57:40;22.70;99.90
12043;DHT22;6082;49.306;12.862;2023-09-12T09:00:06;22.80;99.90
12043;DHT22;6082;49.306;12.862;2023-09-12T09:02:38;22.90;99.90
12043;DHT22;6082;49.306;12.862;2023-09-12T09:05:04;22.90;99.90
12043;DHT22;6082;49.306;12.862;2023-09-12T09:07:36;23.00;99.90
12043;DHT22;6082;49.306;12.862;2023-09-12T09:10:03;23.00;99.90
12043;DHT22;6082;49.306;12.862;2023-09-12T09:12:39;23.20;99.90
12043;DHT22;6082;49.306;12.862;2023-09-12T09:15:27;23.20;99.90
12043;DHT22;6082;49.306;12.862;2023-09-12T09:17:55;23.40;99.90
12043;DHT22;6082;49.306;12.862;2023-09-12T09:20:34;23.50;99.90
12043;DHT22;6082;49.306;12.862;2023-09-12T09:23:02;23.70;99.90
12043;DHT22;6082;49.306;12.862;2023-09-12T09:25:35;23.80;99.90
12043;DHT22;6082;49.306;12.862;2023-09-12T09:28:19;23.80;99.90
12043;DHT22;6082;49.306;12.862;2023-09-12T09:30:47;23.90;99.90
12043;DHT22;6082;49.306;12.862;2023-09-12T09:33:14;24.00;99.90
12043;DHT22;6082;49.306;12.862;2023-09-12T09:35:45;24.10;99.90
12043;DHT22;6082;49.306;12.862;2023-09-12T09:38:11;24.20;99.90
12043;DHT22;6082;49.306;12.862;2023-09-12T09:40:45;24.30;99.90
12043;DHT22;6082;49.306;12.862;2023-09-12T09:43:11;24.30;99.90
12043;DHT22;6082;49.306;12.862;2023-09-12T09:45:45;24.40;99.90
12043;DHT22;6082;49.306;12.862;2023-09-12T09:48:18;24.50;99.90
12043;DHT22;6082;49.306;12.862;2023-09-12T09:50:44;24.60;99.90
12043;DHT22;6082;49.306;12.862;2023-09-12T09:53:10;24.60;99.90
12043;DHT22;6082;49.306;12.862;2023-09-12T09:55:36;24.70;99.90
12043;DHT22;6082;49.306;12.862;2023-09-12T09:58:05;24.80;99.90
12043;DHT22;6082;49.306;12.862;2023-09-12T10:00:33;25.00;99.90
12043;DHT22;6082;49.306;12.862;2023-09-12T10:03:00;25.00;99.90
12043;DHT22;6082;49.306;12.862;2023-09-12T10:05:28;25.10;99.90
12043;DHT22;6082;49.306;12.862;2023-09-12T10:07:55;25.20;99.90
12043;DHT22;6082;49.306;12.862;2023-09-12T10:10:24;25.20;99.90
12043;DHT22;6082;49.306;12.862;2023-09-12T10:12:58;25.30;99.90
12043;DHT22;6082;49.306;12.862;2023-09-12T10:15:28;25.40;99.90
12043;DHT22;6082;49.306;12.862;2023-09-12T10:18:00;25.40;99.90
12043;DHT22;6082;49.306;12.862;2023-09-12T10:20:38;25.50;99.90
12043;DHT22;6082;49.306;12.862;2023-09-12T10:23:32;25.60;99.90
12043;DHT22;6082;49.306;12.862;2023-09-12T10:26:02;25.70;99.90
12043;DHT22;6082;49.306;12.862;2023-09-12T10:28:28;25.80;99.90
12043;DHT22;6082;49.306;12.862;2023-09-12T10:30:57;25.80;99.90
12043;DHT22;6082;49.306;12.862;2023-09-12T10:33:25;26.00;99.90
12043;DHT22;6082;49.306;12.862;2023-09-12T10:35:53;26.00;99.90
12043;DHT22;6082;49.306;12.862;2023-09-12T10:38:20;26.10;99.90
12043;DHT22;6082;49.306;12.862;2023-09-12T10:40:48;26.10;99.90
12043;DHT22;6082;49.306;12.862;2023-09-12T10:43:15;26.20;99.90
12043;DHT22;6082;49.306;12.862;2023-09-12T10:45:41;26.30;99.90
12043;DHT22;6082;49.306;12.862;2023-09-12T10:48:09;26.40;99.90
12043;DHT22;6082;49.306;12.862;2023-09-12T10:50:37;26.50;99.90
12043;DHT22;6082;49.306;12.862;2023-09-12T10:53:15;26.50;99.90
12043;DHT22;6082;49.306;12.862;2023-09-12T10:56:14;26.60;99.90
12043;DHT22;6082;49.306;12.862;2023-09-12T11:01:37;26.70;99.90
12043;DHT22;6082;49.306;12.862;2023-09-12T11:06:44;26.80;99.90
12043;DHT22;6082;49.306;12.862;2023-09-12T11:11:40;26.90;99.90
12043;DHT22;6082;49.306;12.862;2023-09-12T11:14:07;27.00;99.90
12043;DHT22;6082;49.306;12.862;2023-09-12T11:16:33;27.00;99.90
12043;DHT22;6082;49.306;12.862;2023-09-12T11:19:17;27.00;99.90
12043;DHT22;6082;49.306;12.862;2023-09-12T11:21:53;27.00;99.90
12043;DHT22;6082;49.306;12.862;2023-09-12T11:24:20;27.00;99.90
12043;DHT22;6082;49.306;12.862;2023-09-12T11:27:00;27.10;99.90
12043;DHT22;6082;49.306;12.862;2023-09-12T11:29:38;27.10;99.90
12043;DHT22;6082;49.306;12.862;2023-09-12T11:32:05;27.20;99.90
12043;DHT22;6082;49.306;12.862;2023-09-12T11:34:51;27.30;99.90
12043;DHT22;6082;49.306;12.862;2023-09-12T11:37:26;27.30;99.90
12043;DHT22;6082;49.306;12.862;2023-09-12T11:39:54;27.30;99.90
12043;DHT22;6082;49.306;12.862;2023-09-12T11:42:20;27.30;99.90
12043;DHT22;6082;49.306;12.862;2023-09-12T11:44:49;27.40;99.90
12043;DHT22;6082;49.306;12.862;2023-09-12T11:47:15;27.50;99.90
12043;DHT22;6082;49.306;12.862;2023-09-12T11:49:42;27.60;99.90
12043;DHT22;6082;49.306;12.862;2023-09-12T11:52:12;27.70;99.90
12043;DHT22;6082;49.306;12.862;2023-09-12T11:54:39;27.70;99.90
12043;DHT22;6082;49.306;12.862;2023-09-12T11:57:08;27.80;99.90
12043;DHT22;6082;49.306;12.862;2023-09-12T11:59:37;27.80;99.90
12043;DHT22;6082;49.306;12.862;2023-09-12T12:02:07;27.80;99.90
12043;DHT22;6082;49.306;12.862;2023-09-12T12:04:33;27.90;99.90
12043;DHT22;6082;49.306;12.862;2023-09-12T12:07:00;28.00;99.90
12043;DHT22;6082;49.306;12.862;2023-09-12T12:09:27;28.10;99.90
12043;DHT22;6082;49.306;12.862;2023-09-12T12:11:53;28.10;99.90
12043;DHT22;6082;49.306;12.862;2023-09-12T12:14:18;28.10;99.90
12043;DHT22;6082;49.306;12.862;2023-09-12T12:16:48;28.20;99.90
12043;DHT22;6082;49.306;12.862;2023-09-12T12:19:14;28.20;99.90
12043;DHT22;6082;49.306;12.862;2023-09-12T12:21:43;28.20;99.90
12043;DHT22;6082;49.306;12.862;2023-09-12T12:24:14;28.30;99.90
12043;DHT22;6082;49.306;12.862;2023-09-12T12:26:43;28.30;99.90
12043;DHT22;6082;49.306;12.862;2023-09-12T12:29:10;28.30;99.90
12043;DHT22;6082;49.306;12.862;2023-09-12T12:31:37;28.40;99.90
12043;DHT22;6082;49.306;12.862;2023-09-12T12:34:04;28.40;99.90
12043;DHT22;6082;49.306;12.862;2023-09-12T12:36:30;28.50;99.90
12043;DHT22;6082;49.306;12.862;2023-09-12T12:38:56;28.60;99.90
12043;DHT22;6082;49.306;12.862;2023-09-12T12:41:27;28.70;99.90
12043;DHT22;6082;49.306;12.862;2023-09-12T12:43:56;28.70;99.90
12043;DHT22;6082;49.306;12.862;2023-09-12T12:46:24;28.70;99.90
12043;DHT22;6082;49.306;12.862;2023-09-12T12:48:50;28.70;99.90
12043;DHT22;6082;49.306;12.862;2023-09-12T12:51:21;28.70;99.90
12043;DHT22;6082;49.306;12.862;2023-09-12T12:53:55;28.70;99.90
12043;DHT22;6082;49.306;12.862;2023-09-12T12:56:23;28.80;99.90
12043;DHT22;6082;49.306;12.862;2023-09-12T12:58:56;28.80;99.90
12043;DHT22;6082;49.306;12.862;2023-09-12T13:01:24;28.80;99.90
12043;DHT22;6082;49.306;12.862;2023-09-12T13:03:50;28.90;99.90
12043;DHT22;6082;49.306;12.862;2023-09-12T13:06:17;28.90;99.90
12043;DHT22;6082;49.306;12.862;2023-09-12T13:08:44;28.90;99.90
12043;DHT22;6082;49.306;12.862;2023-09-12T13:11:12;28.90;99.90
12043;DHT22;6082;49.306;12.862;2023-09-12T13:13:38;28.90;99.90
12043;DHT22;6082;49.306;12.862;2023-09-12T13:16:05;29.00;99.90
12043;DHT22;6082;49.306;12.862;2023-09-12T13:18:34;29.00;99.90
12043;DHT22;6082;49.306;12.862;2023-09-12T13:21:00;29.00;99.90
12043;DHT22;6082;49.306;12.862;2023-09-12T13:23:27;29.10;99.90
12043;DHT22;6082;49.306;12.862;2023-09-12T13:25:53;29.10;99.90
12043;DHT22;6082;49.306;12.862;2023-09-12T13:28:19;29.20;99.90
12043;DHT22;6082;49.306;12.862;2023-09-12T13:30:44;29.20;99.90
12043;DHT22;6082;49.306;12.862;2023-09-12T13:33:13;29.20;99.90
12043;DHT22;6082;49.306;12.862;2023-09-12T13:35:46;29.30;99.90
12043;DHT22;6082;49.306;12.862;2023-09-12T13:38:12;29.30;99.90
12043;DHT22;6082;49.306;12.862;2023-09-12T13:40:41;29.20;99.90
12043;DHT22;6082;49.306;12.862;2023-09-12T13:43:08;29.20;99.90
12043;DHT22;6082;49.306;12.862;2023-09-12T13:45:34;29.20;99.90
12043;DHT22;6082;49.306;12.862;2023-09-12T13:48:00;29.20;99.90
12043;DHT22;6082;49.306;12.862;2023-09-12T13:50:26;29.10;99.90
12043;DHT22;6082;49.306;12.862;2023-09-12T13:52:57;29.10;99.90
12043;DHT22;6082;49.306;12.862;2023-09-12T13:55:23;29.20;99.90
12043;DHT22;6082;49.306;12.862;2023-09-12T13:57:48;29.30;99.90
12043;DHT22;6082;49.306;12.862;2023-09-12T14:00:14;29.30;99.90
12043;DHT22;6082;49.306;12.862;2023-09-12T14:02:40;29.40;99.90
12043;DHT22;6082;49.306;12.862;2023-09-12T14:05:06;29.40;99.90
12043;DHT22;6082;49.306;12.862;2023-09-12T14:07:32;29.40;99.90
12043;DHT22;6082;49.306;12.862;2023-09-12T14:09:57;29.40;99.90
12043;DHT22;6082;49.306;12.862;2023-09-12T14:12:24;29.40;99.90
12043;DHT22;6082;49.306;12.862;2023-09-12T14:14:51;29.40;99.90
12043;DHT22;6082;49.306;12.862;2023-09-12T14:17:17;29.30;99.90
12043;DHT22;6082;49.306;12.862;2023-09-12T14:19:43;29.20;99.90
12043;DHT22;6082;49.306;12.862;2023-09-12T14:22:09;29.20;99.90
12043;DHT22;6082;49.306;12.862;2023-09-12T14:24:34;29.30;99.90
12043;DHT22;6082;49.306;12.862;2023-09-12T14:27:00;29.20;99.90
12043;DHT22;6082;49.306;12.862;2023-09-12T14:29:26;29.10;99.90
12043;DHT22;6082;49.306;12.862;2023-09-12T14:31:55;29.10;99.90
12043;DHT22;6082;49.306;12.862;2023-09-12T14:34:24;29.10;99.90
12043;DHT22;6082;49.306;12.862;2023-09-12T14:36:53;29.00;99.90
12043;DHT22;6082;49.306;12.862;2023-09-12T14:39:24;29.00;99.90
12043;DHT22;6082;49.306;12.862;2023-09-12T14:41:50;28.90;99.90
12043;DHT22;6082;49.306;12.862;2023-09-12T14:44:20;29.00;99.90
12043;DHT22;6082;49.306;12.862;2023-09-12T14:46:46;29.00;99.90
12043;DHT22;6082;49.306;12.862;2023-09-12T14:49:12;29.10;99.90
12043;DHT22;6082;49.306;12.862;2023-09-12T14:51:38;29.10;99.90
12043;DHT22;6082;49.306;12.862;2023-09-12T14:54:04;29.10;99.90
12043;DHT22;6082;49.306;12.862;2023-09-12T14:56:30;29.10;99.90
12043;DHT22;6082;49.306;12.862;2023-09-12T14:58:56;29.10;99.90
12043;DHT22;6082;49.306;12.862;2023-09-12T15:01:22;29.00;99.90
12043;DHT22;6082;49.306;12.862;2023-09-12T15:03:50;29.10;99.90
12043;DHT22;6082;49.306;12.862;2023-09-12T15:06:17;29.10;99.90
12043;DHT22;6082;49.306;12.862;2023-09-12T15:08:42;29.10;99.90
12043;DHT22;6082;49.306;12.862;2023-09-12T15:11:08;29.20;99.90
12043;DHT22;6082;49.306;12.862;2023-09-12T15:13:34;29.20;99.90
12043;DHT22;6082;49.306;12.862;2023-09-12T15:16:00;29.10;99.90
12043;DHT22;6082;49.306;12.862;2023-09-12T15:18:26;29.10;99.90
12043;DHT22;6082;49.306;12.862;2023-09-12T15:20:53;29.20;99.90
12043;DHT22;6082;49.306;12.862;2023-09-12T15:23:19;29.20;99.90
12043;DHT22;6082;49.306;12.862;2023-09-12T15:25:49;29.20;99.90
12043;DHT22;6082;49.306;12.862;2023-09-12T15:28:14;29.30;99.90
12043;DHT22;6082;49.306;12.862;2023-09-12T15:30:40;29.30;99.90
12043;DHT22;6082;49.306;12.862;2023-09-12T15:33:06;29.30;99.90
12043;DHT22;6082;49.306;12.862;2023-09-12T15:35:32;29.30;99.90
12043;DHT22;6082;49.306;12.862;2023-09-12T15:37:57;29.40;99.90
12043;DHT22;6082;49.306;12.862;2023-09-12T15:40:23;29.40;99.90
12043;DHT22;6082;49.306;12.862;2023-09-12T15:42:49;29.40;99.90